createdAt,value
2023-05-19T00:01:44.174Z,12.30
2023-05-19T00:04:15.357Z,10.30
2023-05-19T00:06:51.101Z,15.40
2023-05-19T00:09:20.827Z,13.00
2023-05-19T00:11:50.920Z,14.90
2023-05-19T00:14:21.093Z,14.30
2023-05-19T00:16:51.001Z,13.40
2023-05-19T00:19:20.328Z,11.60
2023-05-19T00:21:49.717Z,12.20
2023-05-19T00:24:18.952Z,12.80
2023-05-19T00:26:48.409Z,13.70
2023-05-19T00:29:19.397Z,12.70
2023-05-19T00:31:48.936Z,19.10
2023-05-19T00:34:18.260Z,12.30
2023-05-19T00:36:47.455Z,12.40
2023-05-19T00:39:17.688Z,14.50
2023-05-19T00:41:47.063Z,11.80
2023-05-19T00:44:16.591Z,15.50
2023-05-19T00:46:46.220Z,16.10
2023-05-19T00:49:16.255Z,14.10
2023-05-19T00:51:46.443Z,13.10
2023-05-19T00:54:16.883Z,15.10
2023-05-19T00:56:46.269Z,12.90
2023-05-19T00:59:16.900Z,10.70
2023-05-19T01:01:49.107Z,11.60
2023-05-19T01:04:22.360Z,14.30
2023-05-19T01:06:55.543Z,12.50
2023-05-19T01:09:24.950Z,10.10
2023-05-19T01:11:54.459Z,11.50
2023-05-19T01:14:24.178Z,11.80
2023-05-19T01:17:05.858Z,12.90
2023-05-19T01:19:56.423Z,13.90
2023-05-19T01:22:44.441Z,13.30
2023-05-19T01:25:44.836Z,15.40
2023-05-19T01:28:35.026Z,14.60
2023-05-19T01:31:07.577Z,17.80
2023-05-19T01:33:39.614Z,14.00
2023-05-19T01:36:11.974Z,17.70
2023-05-19T01:38:43.510Z,15.90
2023-05-19T01:41:14.431Z,12.50
2023-05-19T01:43:44.800Z,17.30
2023-05-19T01:46:15.354Z,12.90
2023-05-19T01:48:45.922Z,15.90
2023-05-19T01:51:16.090Z,18.30
2023-05-19T01:53:45.653Z,12.70
2023-05-19T01:56:24.084Z,15.60
2023-05-19T01:59:04.655Z,17.40
2023-05-19T02:01:57.398Z,15.80
2023-05-19T02:04:49.554Z,13.90
2023-05-19T02:07:42.729Z,15.10
2023-05-19T02:10:23.244Z,13.60
2023-05-19T02:12:54.503Z,13.70
2023-05-19T02:15:35.676Z,11.80
2023-05-19T02:18:06.535Z,13.60
2023-05-19T02:20:35.898Z,14.70
2023-05-19T02:23:05.603Z,13.90
2023-05-19T02:25:35.228Z,12.70
2023-05-19T02:28:04.933Z,11.20
2023-05-19T02:30:34.437Z,18.70
2023-05-19T02:33:06.595Z,15.10
2023-05-19T02:35:36.232Z,13.40
2023-05-19T02:38:05.374Z,15.60
2023-05-19T02:40:34.718Z,16.40
2023-05-19T02:43:04.286Z,14.00
2023-05-19T02:45:33.620Z,16.10
2023-05-19T02:48:03.520Z,18.20
2023-05-19T02:50:33.188Z,16.40
2023-05-19T02:53:02.974Z,24.30
2023-05-19T02:55:32.360Z,17.40
2023-05-19T02:58:01.981Z,21.10
2023-05-19T03:00:31.677Z,16.20
2023-05-19T03:03:03.094Z,16.70
2023-05-19T03:05:32.839Z,20.00
2023-05-19T03:08:02.314Z,19.70
2023-05-19T03:10:31.793Z,16.60
2023-05-19T03:13:01.515Z,22.40
2023-05-19T03:15:31.167Z,20.00
2023-05-19T03:18:00.307Z,19.40
2023-05-19T03:20:30.729Z,16.40
2023-05-19T03:23:01.647Z,17.40
2023-05-19T03:25:31.543Z,17.00
2023-05-19T03:28:01.723Z,14.20
2023-05-19T03:30:31.419Z,18.90
2023-05-19T03:33:12.416Z,16.60
2023-05-19T03:35:42.394Z,20.20
2023-05-19T03:38:12.117Z,18.00
2023-05-19T03:40:43.433Z,17.20
2023-05-19T03:43:13.372Z,15.70
2023-05-19T03:45:48.636Z,15.80
2023-05-19T03:48:52.295Z,12.40
2023-05-19T03:51:30.409Z,18.50
2023-05-19T03:54:06.417Z,18.40
2023-05-19T03:56:43.088Z,16.40
2023-05-19T03:59:12.642Z,15.30
2023-05-19T04:01:42.259Z,19.90
2023-05-19T04:04:11.644Z,15.50
2023-05-19T04:06:41.056Z,14.80
2023-05-19T04:09:16.161Z,12.40
2023-05-19T04:11:46.309Z,16.30
2023-05-19T04:14:16.177Z,14.80
2023-05-19T04:16:46.051Z,15.60
2023-05-19T04:19:15.333Z,15.40
2023-05-19T04:21:44.952Z,16.70
2023-05-19T04:24:14.128Z,12.20
2023-05-19T04:26:47.379Z,16.50
2023-05-19T04:29:19.301Z,20.20
2023-05-19T04:31:49.648Z,18.00
2023-05-19T04:34:20.155Z,12.20
2023-05-19T04:36:52.476Z,14.40
2023-05-19T04:39:24.388Z,13.70
2023-05-19T04:41:54.425Z,13.10
2023-05-19T04:44:23.624Z,16.70
2023-05-19T04:46:54.718Z,26.30
2023-05-19T04:49:24.662Z,13.60
2023-05-19T04:51:55.915Z,14.60
2023-05-19T04:54:28.646Z,17.30
2023-05-19T04:56:58.315Z,14.90
2023-05-19T04:59:28.865Z,19.00
2023-05-19T05:01:58.421Z,12.60
2023-05-19T05:04:28.672Z,12.20
2023-05-19T05:06:58.157Z,15.40
2023-05-19T05:09:27.872Z,18.80
2023-05-19T05:11:58.336Z,13.90
2023-05-19T05:14:28.420Z,14.20
2023-05-19T05:16:58.730Z,15.00
2023-05-19T05:19:29.023Z,13.90
2023-05-19T05:21:59.164Z,17.60
2023-05-19T05:24:29.230Z,13.00
2023-05-19T05:27:01.544Z,15.30
2023-05-19T05:29:31.499Z,12.80
2023-05-19T05:32:01.037Z,13.90
2023-05-19T05:34:30.625Z,17.10
2023-05-19T05:37:00.018Z,13.00
2023-05-19T05:39:31.991Z,12.90
2023-05-19T05:42:02.521Z,15.10
2023-05-19T05:44:32.439Z,14.20
2023-05-19T05:47:03.943Z,10.90
2023-05-19T05:49:36.726Z,14.20
2023-05-19T05:52:09.484Z,15.10
2023-05-19T05:54:44.594Z,12.90
2023-05-19T05:57:15.408Z,11.20
2023-05-19T05:59:47.376Z,12.90
2023-05-19T06:02:18.335Z,14.60
2023-05-19T06:04:48.122Z,14.60
2023-05-19T06:07:17.531Z,11.40
2023-05-19T06:09:47.336Z,13.80
2023-05-19T06:12:17.428Z,15.80
2023-05-19T06:14:50.367Z,13.80
2023-05-19T06:17:31.384Z,13.90
2023-05-19T06:20:00.557Z,10.80
2023-05-19T06:22:29.716Z,13.40
2023-05-19T06:24:59.296Z,10.20
2023-05-19T06:27:28.652Z,16.70
2023-05-19T06:29:57.946Z,12.40
2023-05-19T06:32:29.892Z,11.00
2023-05-19T06:35:00.207Z,12.00
2023-05-19T06:37:29.495Z,9.30
2023-05-19T06:39:59.542Z,11.70
2023-05-19T06:42:29.265Z,13.50
2023-05-19T06:45:00.965Z,11.40
2023-05-19T06:47:30.229Z,10.90
2023-05-19T06:49:59.496Z,12.50
2023-05-19T06:52:31.975Z,10.30
2023-05-19T06:55:03.043Z,12.80
2023-05-19T06:57:33.352Z,12.40
2023-05-19T07:00:04.508Z,14.80
2023-05-19T07:02:34.082Z,14.40
2023-05-19T07:05:08.256Z,14.90
2023-05-19T07:07:38.147Z,12.90
2023-05-19T07:10:09.724Z,13.40
2023-05-19T07:12:39.077Z,14.70
2023-05-19T07:15:09.738Z,15.80
2023-05-19T07:17:40.102Z,13.20
2023-05-19T07:20:11.002Z,13.40
2023-05-19T07:22:41.101Z,12.50
2023-05-19T07:25:10.700Z,11.50
2023-05-19T07:27:40.220Z,11.30
2023-05-19T07:30:10.468Z,14.30
2023-05-19T07:32:39.982Z,13.30
2023-05-19T07:35:10.216Z,12.00
2023-05-19T07:37:39.757Z,12.70
2023-05-19T07:40:10.079Z,9.30
2023-05-19T07:42:39.327Z,18.50
2023-05-19T07:45:09.713Z,10.40
2023-05-19T07:47:39.163Z,18.40
2023-05-19T07:50:09.147Z,11.70
2023-05-19T07:52:38.422Z,11.70
2023-05-19T07:55:07.599Z,14.20
2023-05-19T07:57:36.942Z,13.70
2023-05-19T08:00:10.166Z,11.70
2023-05-19T08:02:41.848Z,10.60
2023-05-19T08:05:11.819Z,10.80
2023-05-19T08:07:41.119Z,9.70
2023-05-19T08:10:10.922Z,14.00
2023-05-19T08:12:40.628Z,17.00
2023-05-19T08:15:13.613Z,15.60
2023-05-19T08:17:42.932Z,11.50
2023-05-19T08:20:12.835Z,12.10
2023-05-19T08:22:42.130Z,10.30
2023-05-19T08:25:11.947Z,14.30
2023-05-19T08:27:41.831Z,13.10
2023-05-19T08:30:12.093Z,13.60
2023-05-19T08:32:41.923Z,12.70
2023-05-19T08:35:11.526Z,15.20
2023-05-19T08:37:41.213Z,13.30
2023-05-19T08:40:17.429Z,13.40
2023-05-19T08:42:47.190Z,12.90
2023-05-19T08:45:17.205Z,16.40
2023-05-19T08:47:47.572Z,11.20
2023-05-19T08:50:25.045Z,14.50
2023-05-19T08:53:33.946Z,12.80
2023-05-19T08:56:20.117Z,14.90
2023-05-19T08:58:51.355Z,15.20
2023-05-19T09:01:22.797Z,12.80
2023-05-19T09:03:52.369Z,11.40
2023-05-19T09:06:21.673Z,12.70
2023-05-19T09:08:51.365Z,12.60
2023-05-19T09:11:22.764Z,13.20
2023-05-19T09:13:52.449Z,13.60
2023-05-19T09:16:22.293Z,15.00
2023-05-19T09:18:57.121Z,12.70
2023-05-19T09:21:33.335Z,12.00
2023-05-19T09:24:08.488Z,13.00
2023-05-19T09:26:43.080Z,11.00
2023-05-19T09:29:16.697Z,12.80
2023-05-19T09:31:54.497Z,12.50
2023-05-19T09:34:25.272Z,11.00
2023-05-19T09:36:54.937Z,14.40
2023-05-19T09:39:25.347Z,14.00
2023-05-19T09:41:56.322Z,17.20
2023-05-19T09:44:32.720Z,11.30
2023-05-19T09:47:02.487Z,11.30
2023-05-19T09:49:33.095Z,13.10
2023-05-19T09:52:04.266Z,14.60
2023-05-19T09:54:34.707Z,13.80
2023-05-19T09:57:08.333Z,9.60
2023-05-19T09:59:39.317Z,10.70
2023-05-19T10:02:17.630Z,12.50
2023-05-19T10:04:48.568Z,10.10
2023-05-19T10:07:21.381Z,14.20
2023-05-19T10:09:53.339Z,10.10
2023-05-19T10:12:24.489Z,13.00
2023-05-19T10:14:55.240Z,12.00
2023-05-19T10:17:26.345Z,11.60
2023-05-19T10:19:55.746Z,14.20
2023-05-19T10:22:25.054Z,12.40
2023-05-19T10:24:56.116Z,12.50
2023-05-19T10:27:28.361Z,11.70
2023-05-19T10:30:04.967Z,13.10
2023-05-19T10:32:34.847Z,11.80
2023-05-19T10:35:54.935Z,9.40
2023-05-19T10:38:59.171Z,15.30
2023-05-19T10:42:10.048Z,8.80
2023-05-19T10:45:19.078Z,9.50
2023-05-19T10:47:51.676Z,11.40
2023-05-19T10:50:21.251Z,10.70
2023-05-19T10:52:56.085Z,8.90
2023-05-19T10:56:04.352Z,10.10
2023-05-19T10:58:45.886Z,9.20
2023-05-19T11:01:18.068Z,11.50
2023-05-19T11:03:57.261Z,11.30
2023-05-19T11:06:36.338Z,9.70
2023-05-19T11:09:19.450Z,12.40
2023-05-19T11:11:54.329Z,8.70
2023-05-19T11:14:27.714Z,9.60
2023-05-19T11:16:59.026Z,8.70
2023-05-19T11:19:31.428Z,7.80
2023-05-19T11:22:11.346Z,12.70
2023-05-19T11:24:50.398Z,10.90
2023-05-19T11:27:31.638Z,8.30
2023-05-19T11:30:19.392Z,9.10
2023-05-19T11:32:48.918Z,10.70
2023-05-19T11:35:21.411Z,9.20
2023-05-19T11:37:54.379Z,8.80
2023-05-19T11:40:24.178Z,8.80
2023-05-19T11:42:53.573Z,9.10
2023-05-19T11:45:27.077Z,7.30
2023-05-19T11:48:02.747Z,9.30
2023-05-19T11:50:33.405Z,12.30
2023-05-19T11:53:03.073Z,12.00
2023-05-19T11:55:32.981Z,11.30
2023-05-19T11:58:05.828Z,8.90
2023-05-19T12:00:41.384Z,10.90
2023-05-19T12:03:10.920Z,7.90
2023-05-19T12:05:46.586Z,6.60
2023-05-19T12:08:20.301Z,6.70
2023-05-19T12:10:51.121Z,6.80
2023-05-19T12:13:21.117Z,7.80
2023-05-19T12:15:53.747Z,9.40
2023-05-19T12:18:23.410Z,7.30
2023-05-19T12:20:52.700Z,9.70
2023-05-19T12:23:22.946Z,9.10
2023-05-19T12:25:53.356Z,13.10
2023-05-19T12:28:22.688Z,10.10
2023-05-19T12:30:53.895Z,8.40
2023-05-19T12:33:24.493Z,6.30
2023-05-19T12:35:54.865Z,8.90
2023-05-19T12:38:24.294Z,6.30
2023-05-19T12:40:53.450Z,6.70
2023-05-19T12:43:23.504Z,6.50
2023-05-19T12:45:53.616Z,7.40
2023-05-19T12:48:23.122Z,11.30
2023-05-19T12:50:56.267Z,7.40
2023-05-19T12:53:28.281Z,7.70
2023-05-19T12:55:57.794Z,8.20
2023-05-19T12:58:27.073Z,6.70
2023-05-19T13:01:00.348Z,10.40
2023-05-19T13:03:29.825Z,6.00
2023-05-19T13:06:00.136Z,7.90
2023-05-19T13:08:29.998Z,6.50
2023-05-19T13:10:59.510Z,7.10
2023-05-19T13:13:29.121Z,7.10
2023-05-19T13:15:58.372Z,7.20
2023-05-19T13:18:27.974Z,8.50
2023-05-19T13:20:57.433Z,9.90
2023-05-19T13:23:26.735Z,9.40
2023-05-19T13:25:55.782Z,6.70
2023-05-19T13:28:25.330Z,11.10
2023-05-19T13:30:55.480Z,13.30
2023-05-19T13:33:24.860Z,6.60
2023-05-19T13:35:54.261Z,9.10
2023-05-19T13:38:23.562Z,9.30
2023-05-19T13:40:52.889Z,9.40
2023-05-19T13:43:22.159Z,15.10
2023-05-19T13:45:51.386Z,11.00
2023-05-19T13:48:20.805Z,7.60
2023-05-19T13:50:52.750Z,8.20
2023-05-19T13:53:22.132Z,6.40
2023-05-19T13:55:53.398Z,11.20
2023-05-19T13:58:22.591Z,24.90
2023-05-19T14:00:54.696Z,39.80
2023-05-19T14:03:25.292Z,28.40
2023-05-19T14:05:54.772Z,17.80
2023-05-19T14:08:24.183Z,25.50
2023-05-19T14:10:55.671Z,23.90
2023-05-19T14:13:33.349Z,23.50
2023-05-19T14:16:06.529Z,13.30
2023-05-19T14:18:35.858Z,14.10
2023-05-19T14:21:06.029Z,11.50
2023-05-19T14:23:36.063Z,7.30
2023-05-19T14:26:05.547Z,16.40
2023-05-19T14:28:34.775Z,10.30
2023-05-19T14:31:04.982Z,9.80
2023-05-19T14:33:35.687Z,8.20
2023-05-19T14:36:06.384Z,7.00
2023-05-19T14:38:36.388Z,10.60
2023-05-19T14:41:07.373Z,9.20
2023-05-19T14:43:36.581Z,12.20
2023-05-19T14:46:06.216Z,8.10
2023-05-19T14:48:36.050Z,9.70
2023-05-19T14:51:05.436Z,6.40
2023-05-19T14:53:35.166Z,8.20
2023-05-19T14:56:06.537Z,8.40
2023-05-19T14:58:36.429Z,6.80
2023-05-19T15:01:05.792Z,8.70
2023-05-19T15:03:35.256Z,7.70
2023-05-19T15:06:10.715Z,9.10
2023-05-19T15:08:41.318Z,10.10
2023-05-19T15:11:10.402Z,7.40
2023-05-19T15:13:40.008Z,6.30
2023-05-19T15:18:44.820Z,10.30
2023-05-19T15:21:14.097Z,7.80
2023-05-19T15:23:43.355Z,12.20
2023-05-19T15:26:13.383Z,9.20
2023-05-19T15:28:42.774Z,6.90
2023-05-19T15:31:12.366Z,10.60
2023-05-19T15:33:42.289Z,6.50
2023-05-19T15:36:16.611Z,8.10
2023-05-19T15:38:46.220Z,15.00
2023-05-19T15:41:15.436Z,10.30
2023-05-19T15:43:46.519Z,8.60
2023-05-19T15:46:16.393Z,7.40
2023-05-19T15:48:45.898Z,10.00
2023-05-19T15:51:16.128Z,6.30
2023-05-19T15:53:45.705Z,6.60
2023-05-19T15:56:15.106Z,9.20
2023-05-19T15:58:44.442Z,8.20
2023-05-19T16:01:15.290Z,6.30
2023-05-19T16:03:46.072Z,7.40
2023-05-19T16:06:15.695Z,9.20
2023-05-19T16:08:45.413Z,7.00
2023-05-19T16:11:14.746Z,9.50
2023-05-19T16:13:44.651Z,9.00
2023-05-19T16:16:16.557Z,8.20
2023-05-19T16:18:45.997Z,7.70
2023-05-19T16:21:15.503Z,14.40
2023-05-19T16:23:45.000Z,8.10
2023-05-19T16:26:14.710Z,6.30
2023-05-19T16:28:44.000Z,7.50
2023-05-19T16:31:13.326Z,7.40
2023-05-19T16:33:42.919Z,5.60
2023-05-19T16:36:12.537Z,5.50
2023-05-19T16:38:42.030Z,8.70
2023-05-19T16:41:12.288Z,10.20
2023-05-19T16:43:41.605Z,7.80
2023-05-19T16:46:12.470Z,6.50
2023-05-19T16:48:41.792Z,5.80
2023-05-19T16:51:11.091Z,6.90
2023-05-19T16:53:40.597Z,6.40
2023-05-19T16:56:09.734Z,6.50
2023-05-19T16:58:39.607Z,6.50
2023-05-19T17:01:10.759Z,9.10
2023-05-19T17:03:40.259Z,6.10
2023-05-19T17:06:09.881Z,6.60
2023-05-19T17:08:40.402Z,5.90
2023-05-19T17:11:09.690Z,6.90
2023-05-19T17:13:39.922Z,11.90
2023-05-19T17:16:09.318Z,7.40
2023-05-19T17:18:38.469Z,8.20
2023-05-19T17:21:08.123Z,11.80
2023-05-19T17:23:38.285Z,8.10
2023-05-19T17:26:07.970Z,8.70
2023-05-19T17:28:37.154Z,9.00
2023-05-19T17:31:15.397Z,10.10
2023-05-19T17:33:46.297Z,11.60
2023-05-19T17:36:16.023Z,10.10
2023-05-19T17:38:45.313Z,12.00
2023-05-19T17:41:14.636Z,10.90
2023-05-19T17:43:44.023Z,15.90
2023-05-19T17:46:13.478Z,8.20
2023-05-19T17:48:42.884Z,9.90
2023-05-19T17:51:12.537Z,13.60
2023-05-19T17:53:43.036Z,11.40
2023-05-19T17:56:13.141Z,11.00
2023-05-19T17:58:44.306Z,7.00
2023-05-19T18:01:14.957Z,10.60
2023-05-19T18:03:49.654Z,11.60
2023-05-19T18:06:20.625Z,8.60
2023-05-19T18:08:53.296Z,15.30
2023-05-19T18:11:23.319Z,9.70
2023-05-19T18:13:52.524Z,7.90
2023-05-19T18:16:21.705Z,7.30
2023-05-19T18:18:51.299Z,8.00
2023-05-19T18:21:20.604Z,8.50
2023-05-19T18:23:49.959Z,10.00
2023-05-19T18:26:19.437Z,10.70
2023-05-19T18:28:48.944Z,8.20
2023-05-19T18:31:20.211Z,10.30
2023-05-19T18:33:49.692Z,8.50
2023-05-19T18:36:19.413Z,9.50
2023-05-19T18:38:50.557Z,10.90
2023-05-19T18:41:20.277Z,6.60
2023-05-19T18:43:49.470Z,9.20
2023-05-19T18:46:18.924Z,9.60
2023-05-19T18:48:50.837Z,9.10
2023-05-19T18:51:21.499Z,11.60
2023-05-19T18:53:51.174Z,13.00
2023-05-19T18:56:27.923Z,9.20
2023-05-19T18:58:58.266Z,11.10
2023-05-19T19:01:27.689Z,10.80
2023-05-19T19:03:56.904Z,9.60
2023-05-19T19:06:26.272Z,9.30
2023-05-19T19:08:55.488Z,9.80
2023-05-19T19:11:24.999Z,7.30
2023-05-19T19:13:56.218Z,7.30
2023-05-19T19:16:25.540Z,9.50
2023-05-19T19:18:54.979Z,9.20
2023-05-19T19:21:24.848Z,9.20
2023-05-19T19:23:56.928Z,10.50
2023-05-19T19:26:29.270Z,8.60
2023-05-19T19:28:58.874Z,9.30
2023-05-19T19:31:31.246Z,9.30
2023-05-19T19:34:03.839Z,13.00
2023-05-19T19:36:33.411Z,7.40
2023-05-19T19:39:03.069Z,8.20
2023-05-19T19:41:33.558Z,9.00
2023-05-19T19:44:02.839Z,10.70
2023-05-19T19:46:32.340Z,9.80
2023-05-19T19:49:02.143Z,8.20
2023-05-19T19:51:31.887Z,9.90
2023-05-19T19:54:01.287Z,8.50
2023-05-19T19:56:30.746Z,8.40
2023-05-19T19:59:01.676Z,9.90
2023-05-19T20:01:31.223Z,10.10
2023-05-19T20:04:01.151Z,11.20
2023-05-19T20:06:31.225Z,13.20
2023-05-19T20:09:00.601Z,10.70
2023-05-19T20:11:30.957Z,10.30
2023-05-19T20:14:00.645Z,8.70
2023-05-19T20:16:30.104Z,15.60
2023-05-19T20:18:59.676Z,7.80
2023-05-19T20:21:29.472Z,10.00
2023-05-19T20:23:59.067Z,8.90
2023-05-19T20:26:29.516Z,10.40
2023-05-19T20:28:59.322Z,7.90
2023-05-19T20:31:28.812Z,9.60
2023-05-19T20:33:59.352Z,10.90
2023-05-19T20:36:30.386Z,9.80
2023-05-19T20:39:00.125Z,11.70
2023-05-19T20:41:29.601Z,9.40
2023-05-19T20:43:58.882Z,14.80
2023-05-19T20:46:28.781Z,11.90
2023-05-19T20:48:58.212Z,13.00
2023-05-19T20:51:27.505Z,17.70
2023-05-19T20:53:57.540Z,10.70
2023-05-19T20:56:26.987Z,13.40
2023-05-19T20:58:56.683Z,13.70
2023-05-19T21:01:26.400Z,11.20
2023-05-19T21:03:56.500Z,13.60
2023-05-19T21:06:25.944Z,12.00
2023-05-19T21:08:55.159Z,14.20
2023-05-19T21:11:24.701Z,9.50
2023-05-19T21:13:56.277Z,13.80
2023-05-19T21:16:26.439Z,10.40
2023-05-19T21:18:55.832Z,10.60
2023-05-19T21:21:26.805Z,9.80
2023-05-19T21:23:56.856Z,11.30
2023-05-19T21:26:26.972Z,12.50
2023-05-19T21:28:56.256Z,11.20
2023-05-19T21:31:25.839Z,14.00
2023-05-19T21:33:55.696Z,10.20
2023-05-19T21:36:25.197Z,12.80
2023-05-19T21:38:54.756Z,14.60
2023-05-19T21:41:24.287Z,9.80
2023-05-19T21:43:53.770Z,9.60
2023-05-19T21:46:23.259Z,11.00
2023-05-19T21:48:52.832Z,11.20
2023-05-19T21:51:22.117Z,14.30
2023-05-19T21:53:51.513Z,14.80
2023-05-19T21:56:21.259Z,10.10
2023-05-19T21:58:50.518Z,10.50
2023-05-19T22:01:19.728Z,13.00
2023-05-19T22:03:49.223Z,11.70
2023-05-19T22:06:18.528Z,13.00
2023-05-19T22:08:48.030Z,12.10
2023-05-19T22:11:18.187Z,10.20
2023-05-19T22:13:47.385Z,12.70
2023-05-19T22:16:16.817Z,11.40
2023-05-19T22:18:46.712Z,13.30
2023-05-19T22:21:16.167Z,14.30
2023-05-19T22:23:45.361Z,16.40
2023-05-19T22:26:14.563Z,11.50
2023-05-19T22:28:43.966Z,11.10
2023-05-19T22:31:13.370Z,10.20
2023-05-19T22:33:42.554Z,13.10
2023-05-19T22:36:11.695Z,12.40
2023-05-19T22:38:41.585Z,10.60
2023-05-19T22:41:11.398Z,9.50
2023-05-19T22:43:41.004Z,14.00
2023-05-19T22:46:10.539Z,13.80
2023-05-19T22:48:39.906Z,14.90
2023-05-19T22:51:09.132Z,11.70
2023-05-19T22:53:38.402Z,12.20
2023-05-19T22:56:07.942Z,12.20
2023-05-19T22:58:37.520Z,12.80
2023-05-19T23:01:06.879Z,9.90
2023-05-19T23:03:36.298Z,12.70
2023-05-19T23:06:05.933Z,11.60
2023-05-19T23:08:35.442Z,10.80
2023-05-19T23:11:05.054Z,12.40
2023-05-19T23:13:34.674Z,13.50
2023-05-19T23:16:06.756Z,12.00
2023-05-19T23:18:36.431Z,11.20
2023-05-19T23:21:06.860Z,17.90
2023-05-19T23:23:37.032Z,12.90
2023-05-19T23:26:07.404Z,13.10
2023-05-19T23:28:36.645Z,11.80
2023-05-19T23:31:06.362Z,16.60
2023-05-19T23:33:35.716Z,14.20
2023-05-19T23:36:10.495Z,12.50
2023-05-19T23:38:40.121Z,14.60
2023-05-19T23:41:09.465Z,13.00
2023-05-19T23:43:39.682Z,17.80
2023-05-19T23:46:09.527Z,13.10
2023-05-19T23:48:39.728Z,15.00
2023-05-19T23:51:09.327Z,14.60
2023-05-19T23:53:38.877Z,20.10
2023-05-19T23:56:08.859Z,20.80
2023-05-19T23:58:38.554Z,15.50
